sensor_id;sensor_type;location;lat;lon;timestamp;temperature;humidity
66740;DHT22;53653;52.188;8.602;2022-08-03T00:02:24;20.56;72.65
66740;DHT22;53653;52.188;8.602;2022-08-03T00:04:49;20.52;72.89
66740;DHT22;53653;52.188;8.602;2022-08-03T00:07:15;20.52;72.97
66740;DHT22;53653;52.188;8.602;2022-08-03T00:09:40;20.52;73.00
66740;DHT22;53653;52.188;8.602;2022-08-03T00:12:06;20.49;72.95
66740;DHT22;53653;52.188;8.602;2022-08-03T00:14:32;20.56;72.75
66740;DHT22;53653;52.188;8.602;2022-08-03T00:16:57;20.52;72.77
66740;DHT22;53653;52.188;8.602;2022-08-03T00:19:23;20.50;72.74
66740;DHT22;53653;52.188;8.602;2022-08-03T00:21:48;20.49;72.87
66740;DHT22;53653;52.188;8.602;2022-08-03T00:24:14;20.43;73.08
66740;DHT22;53653;52.188;8.602;2022-08-03T00:26:39;20.35;73.35
66740;DHT22;53653;52.188;8.602;2022-08-03T00:29:04;20.33;73.34
66740;DHT22;53653;52.188;8.602;2022-08-03T00:31:30;20.26;73.57
66740;DHT22;53653;52.188;8.602;2022-08-03T00:33:55;20.29;73.39
66740;DHT22;53653;52.188;8.602;2022-08-03T00:36:20;20.33;73.23
66740;DHT22;53653;52.188;8.602;2022-08-03T00:38:46;20.30;73.39
66740;DHT22;53653;52.188;8.602;2022-08-03T00:41:11;20.29;73.64
66740;DHT22;53653;52.188;8.602;2022-08-03T00:43:37;20.25;73.89
66740;DHT22;53653;52.188;8.602;2022-08-03T00:46:03;20.15;74.67
66740;DHT22;53653;52.188;8.602;2022-08-03T00:48:28;20.09;74.91
66740;DHT22;53653;52.188;8.602;2022-08-03T00:50:54;20.08;75.16
66740;DHT22;53653;52.188;8.602;2022-08-03T00:53:19;20.09;75.19
66740;DHT22;53653;52.188;8.602;2022-08-03T00:55:45;20.11;75.06
66740;DHT22;53653;52.188;8.602;2022-08-03T00:58:11;20.11;75.14
66740;DHT22;53653;52.188;8.602;2022-08-03T01:00:38;20.05;75.26
66740;DHT22;53653;52.188;8.602;2022-08-03T01:03:08;20.02;75.65
66740;DHT22;53653;52.188;8.602;2022-08-03T01:11:16;19.82;76.35
66740;DHT22;53653;52.188;8.602;2022-08-03T01:14:03;19.77;76.53
66740;DHT22;53653;52.188;8.602;2022-08-03T01:16:51;19.75;76.66
66740;DHT22;53653;52.188;8.602;2022-08-03T01:19:43;19.70;76.77
66740;DHT22;53653;52.188;8.602;2022-08-03T01:30:34;19.67;77.00
66740;DHT22;53653;52.188;8.602;2022-08-03T01:33:03;19.70;76.89
66740;DHT22;53653;52.188;8.602;2022-08-03T01:35:40;19.63;77.32
66740;DHT22;53653;52.188;8.602;2022-08-03T01:38:38;19.54;77.58
66740;DHT22;53653;52.188;8.602;2022-08-03T01:41:07;19.39;78.56
66740;DHT22;53653;52.188;8.602;2022-08-03T01:43:35;19.37;78.45
66740;DHT22;53653;52.188;8.602;2022-08-03T01:46:03;19.39;78.59
66740;DHT22;53653;52.188;8.602;2022-08-03T01:48:29;19.39;78.74
66740;DHT22;53653;52.188;8.602;2022-08-03T01:50:55;19.37;78.57
66740;DHT22;53653;52.188;8.602;2022-08-03T01:53:21;19.34;78.59
66740;DHT22;53653;52.188;8.602;2022-08-03T01:55:51;19.34;78.85
66740;DHT22;53653;52.188;8.602;2022-08-03T01:58:18;19.36;78.60
66740;DHT22;53653;52.188;8.602;2022-08-03T02:00:45;19.40;78.01
66740;DHT22;53653;52.188;8.602;2022-08-03T02:03:12;19.40;77.91
66740;DHT22;53653;52.188;8.602;2022-08-03T02:05:39;19.41;78.03
66740;DHT22;53653;52.188;8.602;2022-08-03T02:08:07;19.40;77.89
66740;DHT22;53653;52.188;8.602;2022-08-03T02:10:34;19.40;77.85
66740;DHT22;53653;52.188;8.602;2022-08-03T02:13:02;19.36;78.02
66740;DHT22;53653;52.188;8.602;2022-08-03T02:15:29;19.31;78.14
66740;DHT22;53653;52.188;8.602;2022-08-03T02:17:57;19.31;78.03
66740;DHT22;53653;52.188;8.602;2022-08-03T02:20:24;19.33;78.12
66740;DHT22;53653;52.188;8.602;2022-08-03T02:22:49;19.34;78.34
66740;DHT22;53653;52.188;8.602;2022-08-03T02:25:15;19.34;78.13
66740;DHT22;53653;52.188;8.602;2022-08-03T02:28:09;19.33;78.38
66740;DHT22;53653;52.188;8.602;2022-08-03T02:30:37;19.34;78.07
66740;DHT22;53653;52.188;8.602;2022-08-03T02:33:06;19.33;78.46
66740;DHT22;53653;52.188;8.602;2022-08-03T02:35:34;19.34;78.28
66740;DHT22;53653;52.188;8.602;2022-08-03T02:38:02;19.31;77.88
66740;DHT22;53653;52.188;8.602;2022-08-03T02:40:29;19.37;77.92
66740;DHT22;53653;52.188;8.602;2022-08-03T02:42:59;19.34;78.30
66740;DHT22;53653;52.188;8.602;2022-08-03T02:45:27;19.29;78.41
66740;DHT22;53653;52.188;8.602;2022-08-03T02:47:57;19.29;78.61
66740;DHT22;53653;52.188;8.602;2022-08-03T02:50:25;19.26;78.38
66740;DHT22;53653;52.188;8.602;2022-08-03T02:52:51;19.20;78.77
66740;DHT22;53653;52.188;8.602;2022-08-03T02:55:19;19.12;78.97
66740;DHT22;53653;52.188;8.602;2022-08-03T02:57:46;19.08;79.13
66740;DHT22;53653;52.188;8.602;2022-08-03T03:00:12;19.08;78.70
66740;DHT22;53653;52.188;8.602;2022-08-03T03:02:39;19.03;78.85
66740;DHT22;53653;52.188;8.602;2022-08-03T03:05:06;18.98;78.82
66740;DHT22;53653;52.188;8.602;2022-08-03T03:07:33;18.98;78.54
66740;DHT22;53653;52.188;8.602;2022-08-03T03:10:00;18.96;78.57
66740;DHT22;53653;52.188;8.602;2022-08-03T03:12:26;18.96;78.25
66740;DHT22;53653;52.188;8.602;2022-08-03T03:14:52;18.96;78.55
66740;DHT22;53653;52.188;8.602;2022-08-03T03:17:18;18.89;78.83
66740;DHT22;53653;52.188;8.602;2022-08-03T03:19:44;18.82;78.85
66740;DHT22;53653;52.188;8.602;2022-08-03T03:22:11;18.78;79.02
66740;DHT22;53653;52.188;8.602;2022-08-03T03:24:38;18.76;79.09
66740;DHT22;53653;52.188;8.602;2022-08-03T03:27:04;18.84;78.49
66740;DHT22;53653;52.188;8.602;2022-08-03T03:29:31;18.92;78.36
66740;DHT22;53653;52.188;8.602;2022-08-03T03:31:56;18.84;78.35
66740;DHT22;53653;52.188;8.602;2022-08-03T03:34:23;18.88;78.22
66740;DHT22;53653;52.188;8.602;2022-08-03T03:36:48;18.94;77.76
66740;DHT22;53653;52.188;8.602;2022-08-03T03:39:14;18.99;77.83
66740;DHT22;53653;52.188;8.602;2022-08-03T03:41:39;18.99;77.87
66740;DHT22;53653;52.188;8.602;2022-08-03T03:44:05;18.99;77.84
66740;DHT22;53653;52.188;8.602;2022-08-03T03:46:30;18.95;78.19
66740;DHT22;53653;52.188;8.602;2022-08-03T03:48:56;18.91;78.74
66740;DHT22;53653;52.188;8.602;2022-08-03T03:51:21;18.84;79.43
66740;DHT22;53653;52.188;8.602;2022-08-03T03:53:58;18.79;79.70
66740;DHT22;53653;52.188;8.602;2022-08-03T03:56:24;18.75;79.67
66740;DHT22;53653;52.188;8.602;2022-08-03T03:58:49;18.68;79.72
66740;DHT22;53653;52.188;8.602;2022-08-03T04:01:15;18.68;79.64
66740;DHT22;53653;52.188;8.602;2022-08-03T04:03:41;18.68;79.76
66740;DHT22;53653;52.188;8.602;2022-08-03T04:06:06;18.67;79.74
66740;DHT22;53653;52.188;8.602;2022-08-03T04:08:51;18.67;79.64
66740;DHT22;53653;52.188;8.602;2022-08-03T04:11:54;18.62;79.92
66740;DHT22;53653;52.188;8.602;2022-08-03T04:14:24;18.61;79.98
66740;DHT22;53653;52.188;8.602;2022-08-03T04:16:54;18.64;79.71
66740;DHT22;53653;52.188;8.602;2022-08-03T04:19:33;18.64;79.83
66740;DHT22;53653;52.188;8.602;2022-08-03T04:22:03;18.65;79.88
66740;DHT22;53653;52.188;8.602;2022-08-03T04:24:33;18.62;80.14
66740;DHT22;53653;52.188;8.602;2022-08-03T04:27:02;18.60;80.61
66740;DHT22;53653;52.188;8.602;2022-08-03T04:29:30;18.62;80.80
66740;DHT22;53653;52.188;8.602;2022-08-03T04:31:58;18.58;81.18
66740;DHT22;53653;52.188;8.602;2022-08-03T04:34:25;18.55;81.38
66740;DHT22;53653;52.188;8.602;2022-08-03T04:36:52;18.48;81.92
66740;DHT22;53653;52.188;8.602;2022-08-03T04:39:27;18.47;82.31
66740;DHT22;53653;52.188;8.602;2022-08-03T04:41:57;18.51;81.97
66740;DHT22;53653;52.188;8.602;2022-08-03T04:44:24;18.61;81.64
66740;DHT22;53653;52.188;8.602;2022-08-03T04:46:51;18.65;81.37
66740;DHT22;53653;52.188;8.602;2022-08-03T04:49:19;18.69;81.48
66740;DHT22;53653;52.188;8.602;2022-08-03T04:51:45;18.78;81.16
66740;DHT22;53653;52.188;8.602;2022-08-03T04:54:11;18.78;80.97
66740;DHT22;53653;52.188;8.602;2022-08-03T04:56:41;18.88;80.73
66740;DHT22;53653;52.188;8.602;2022-08-03T04:59:08;18.89;80.63
66740;DHT22;53653;52.188;8.602;2022-08-03T05:01:34;18.92;80.47
66740;DHT22;53653;52.188;8.602;2022-08-03T05:04:00;19.06;80.19
66740;DHT22;53653;52.188;8.602;2022-08-03T05:06:25;19.19;79.58
66740;DHT22;53653;52.188;8.602;2022-08-03T05:08:51;19.30;79.27
66740;DHT22;53653;52.188;8.602;2022-08-03T05:11:17;19.46;78.69
66740;DHT22;53653;52.188;8.602;2022-08-03T05:13:43;19.60;77.90
66740;DHT22;53653;52.188;8.602;2022-08-03T05:16:09;19.73;77.55
66740;DHT22;53653;52.188;8.602;2022-08-03T05:18:34;19.81;77.21
66740;DHT22;53653;52.188;8.602;2022-08-03T05:21:00;19.97;76.62
66740;DHT22;53653;52.188;8.602;2022-08-03T05:23:26;20.19;75.95
66740;DHT22;53653;52.188;8.602;2022-08-03T05:25:51;20.43;75.27
66740;DHT22;53653;52.188;8.602;2022-08-03T05:28:17;20.67;74.35
66740;DHT22;53653;52.188;8.602;2022-08-03T05:30:42;20.90;73.59
66740;DHT22;53653;52.188;8.602;2022-08-03T05:33:08;21.12;72.48
66740;DHT22;53653;52.188;8.602;2022-08-03T05:35:34;21.39;71.56
66740;DHT22;53653;52.188;8.602;2022-08-03T05:38:02;21.24;71.54
66740;DHT22;53653;52.188;8.602;2022-08-03T05:40:27;21.27;70.97
66740;DHT22;53653;52.188;8.602;2022-08-03T05:42:53;21.38;70.49
66740;DHT22;53653;52.188;8.602;2022-08-03T05:45:18;21.39;70.53
66740;DHT22;53653;52.188;8.602;2022-08-03T05:47:44;21.38;70.59
66740;DHT22;53653;52.188;8.602;2022-08-03T05:50:11;21.63;69.68
66740;DHT22;53653;52.188;8.602;2022-08-03T05:52:37;22.01;68.96
66740;DHT22;53653;52.188;8.602;2022-08-03T05:55:05;22.43;67.49
66740;DHT22;53653;52.188;8.602;2022-08-03T05:57:31;22.62;66.51
66740;DHT22;53653;52.188;8.602;2022-08-03T05:59:57;22.61;65.49
66740;DHT22;53653;52.188;8.602;2022-08-03T06:02:22;22.69;65.33
66740;DHT22;53653;52.188;8.602;2022-08-03T06:04:47;23.09;64.58
66740;DHT22;53653;52.188;8.602;2022-08-03T06:07:13;23.28;63.55
66740;DHT22;53653;52.188;8.602;2022-08-03T06:09:38;23.20;63.65
66740;DHT22;53653;52.188;8.602;2022-08-03T06:12:05;23.39;63.24
66740;DHT22;53653;52.188;8.602;2022-08-03T06:14:31;23.28;63.69
66740;DHT22;53653;52.188;8.602;2022-08-03T06:16:57;23.24;63.37
66740;DHT22;53653;52.188;8.602;2022-08-03T06:19:22;23.34;64.03
66740;DHT22;53653;52.188;8.602;2022-08-03T06:21:48;23.57;63.13
66740;DHT22;53653;52.188;8.602;2022-08-03T06:24:14;24.02;62.03
66740;DHT22;53653;52.188;8.602;2022-08-03T06:26:40;24.21;61.32
66740;DHT22;53653;52.188;8.602;2022-08-03T06:29:06;24.44;61.17
66740;DHT22;53653;52.188;8.602;2022-08-03T06:31:31;24.33;61.04
66740;DHT22;53653;52.188;8.602;2022-08-03T06:33:57;23.79;62.09
66740;DHT22;53653;52.188;8.602;2022-08-03T06:36:22;23.84;62.46
66740;DHT22;53653;52.188;8.602;2022-08-03T06:38:48;23.98;61.97
66740;DHT22;53653;52.188;8.602;2022-08-03T06:41:13;24.15;61.52
66740;DHT22;53653;52.188;8.602;2022-08-03T06:43:39;24.19;61.43
66740;DHT22;53653;52.188;8.602;2022-08-03T06:46:04;24.39;61.08
66740;DHT22;53653;52.188;8.602;2022-08-03T06:48:30;24.86;60.25
66740;DHT22;53653;52.188;8.602;2022-08-03T06:50:55;24.76;60.37
66740;DHT22;53653;52.188;8.602;2022-08-03T06:53:21;25.07;60.03
66740;DHT22;53653;52.188;8.602;2022-08-03T06:55:46;25.42;58.81
66740;DHT22;53653;52.188;8.602;2022-08-03T06:58:12;25.77;57.42
66740;DHT22;53653;52.188;8.602;2022-08-03T07:00:37;25.76;57.06
66740;DHT22;53653;52.188;8.602;2022-08-03T07:03:02;25.58;57.50
66740;DHT22;53653;52.188;8.602;2022-08-03T07:05:28;25.61;57.56
66740;DHT22;53653;52.188;8.602;2022-08-03T07:07:55;25.98;56.79
66740;DHT22;53653;52.188;8.602;2022-08-03T07:10:21;26.59;55.74
66740;DHT22;53653;52.188;8.602;2022-08-03T07:12:47;26.47;55.37
66740;DHT22;53653;52.188;8.602;2022-08-03T07:15:12;26.54;55.62
66740;DHT22;53653;52.188;8.602;2022-08-03T07:17:38;25.89;57.25
66740;DHT22;53653;52.188;8.602;2022-08-03T07:20:07;25.77;57.99
66740;DHT22;53653;52.188;8.602;2022-08-03T07:22:33;26.00;57.83
66740;DHT22;53653;52.188;8.602;2022-08-03T07:24:59;26.08;57.90
66740;DHT22;53653;52.188;8.602;2022-08-03T07:27:25;26.44;56.41
66740;DHT22;53653;52.188;8.602;2022-08-03T07:29:55;27.03;54.42
66740;DHT22;53653;52.188;8.602;2022-08-03T07:32:22;27.33;53.98
66740;DHT22;53653;52.188;8.602;2022-08-03T07:34:47;27.34;53.79
66740;DHT22;53653;52.188;8.602;2022-08-03T07:37:12;27.68;53.50
66740;DHT22;53653;52.188;8.602;2022-08-03T07:39:38;28.05;52.25
66740;DHT22;53653;52.188;8.602;2022-08-03T07:42:03;28.43;51.53
66740;DHT22;53653;52.188;8.602;2022-08-03T07:44:29;28.26;51.58
66740;DHT22;53653;52.188;8.602;2022-08-03T07:46:54;28.39;51.17
66740;DHT22;53653;52.188;8.602;2022-08-03T07:49:21;28.61;49.75
66740;DHT22;53653;52.188;8.602;2022-08-03T07:51:46;28.57;50.07
66740;DHT22;53653;52.188;8.602;2022-08-03T07:54:32;28.10;51.03
66740;DHT22;53653;52.188;8.602;2022-08-03T07:56:57;28.68;49.92
66740;DHT22;53653;52.188;8.602;2022-08-03T07:59:22;29.16;48.44
66740;DHT22;53653;52.188;8.602;2022-08-03T08:01:48;29.38;47.74
66740;DHT22;53653;52.188;8.602;2022-08-03T08:04:17;29.61;47.37
66740;DHT22;53653;52.188;8.602;2022-08-03T08:06:42;29.53;47.92
66740;DHT22;53653;52.188;8.602;2022-08-03T08:09:08;29.61;47.86
66740;DHT22;53653;52.188;8.602;2022-08-03T08:11:33;29.51;47.20
66740;DHT22;53653;52.188;8.602;2022-08-03T08:13:59;29.55;46.55
66740;DHT22;53653;52.188;8.602;2022-08-03T08:16:27;29.94;45.90
66740;DHT22;53653;52.188;8.602;2022-08-03T08:18:52;30.00;45.80
66740;DHT22;53653;52.188;8.602;2022-08-03T08:21:18;29.82;45.80
66740;DHT22;53653;52.188;8.602;2022-08-03T08:23:43;30.18;44.76
66740;DHT22;53653;52.188;8.602;2022-08-03T08:26:09;30.30;44.74
66740;DHT22;53653;52.188;8.602;2022-08-03T08:28:34;30.13;44.61
66740;DHT22;53653;52.188;8.602;2022-08-03T08:31:00;30.09;45.02
66740;DHT22;53653;52.188;8.602;2022-08-03T08:33:26;30.03;44.51
66740;DHT22;53653;52.188;8.602;2022-08-03T08:35:52;29.86;45.23
66740;DHT22;53653;52.188;8.602;2022-08-03T08:38:17;30.27;44.64
66740;DHT22;53653;52.188;8.602;2022-08-03T08:40:43;30.55;43.52
66740;DHT22;53653;52.188;8.602;2022-08-03T08:43:08;30.51;43.80
66740;DHT22;53653;52.188;8.602;2022-08-03T08:45:34;30.90;43.23
66740;DHT22;53653;52.188;8.602;2022-08-03T08:48:01;30.93;43.60
66740;DHT22;53653;52.188;8.602;2022-08-03T08:50:27;30.80;43.23
66740;DHT22;53653;52.188;8.602;2022-08-03T08:52:54;30.92;43.43
66740;DHT22;53653;52.188;8.602;2022-08-03T08:55:22;30.61;43.25
66740;DHT22;53653;52.188;8.602;2022-08-03T08:57:51;30.69;42.92
66740;DHT22;53653;52.188;8.602;2022-08-03T09:00:21;30.69;43.71
66740;DHT22;53653;52.188;8.602;2022-08-03T09:02:46;31.17;42.29
66740;DHT22;53653;52.188;8.602;2022-08-03T09:05:17;31.27;42.06
66740;DHT22;53653;52.188;8.602;2022-08-03T09:07:45;31.50;41.76
66740;DHT22;53653;52.188;8.602;2022-08-03T09:10:13;31.84;41.49
66740;DHT22;53653;52.188;8.602;2022-08-03T09:12:43;31.95;41.58
66740;DHT22;53653;52.188;8.602;2022-08-03T09:15:29;31.73;41.51
66740;DHT22;53653;52.188;8.602;2022-08-03T09:17:57;31.65;41.61
66740;DHT22;53653;52.188;8.602;2022-08-03T09:20:24;31.99;41.83
66740;DHT22;53653;52.188;8.602;2022-08-03T09:23:01;32.01;40.56
66740;DHT22;53653;52.188;8.602;2022-08-03T09:25:32;31.86;40.93
66740;DHT22;53653;52.188;8.602;2022-08-03T09:30:33;31.96;41.23
66740;DHT22;53653;52.188;8.602;2022-08-03T09:33:00;31.46;41.71
66740;DHT22;53653;52.188;8.602;2022-08-03T09:35:26;31.86;41.63
66740;DHT22;53653;52.188;8.602;2022-08-03T09:38:12;32.19;41.21
66740;DHT22;53653;52.188;8.602;2022-08-03T09:40:39;32.18;41.60
66740;DHT22;53653;52.188;8.602;2022-08-03T09:43:05;31.88;40.96
66740;DHT22;53653;52.188;8.602;2022-08-03T09:45:33;31.82;41.70
66740;DHT22;53653;52.188;8.602;2022-08-03T09:50:48;31.99;41.27
66740;DHT22;53653;52.188;8.602;2022-08-03T09:53:15;31.77;41.77
66740;DHT22;53653;52.188;8.602;2022-08-03T09:55:50;31.10;42.85
66740;DHT22;53653;52.188;8.602;2022-08-03T09:58:15;30.64;44.18
66740;DHT22;53653;52.188;8.602;2022-08-03T10:01:02;30.71;43.90
66740;DHT22;53653;52.188;8.602;2022-08-03T10:03:33;31.19;43.61
66740;DHT22;53653;52.188;8.602;2022-08-03T10:06:17;31.54;43.20
66740;DHT22;53653;52.188;8.602;2022-08-03T10:08:49;31.75;42.14
66740;DHT22;53653;52.188;8.602;2022-08-03T10:11:29;31.81;42.05
66740;DHT22;53653;52.188;8.602;2022-08-03T10:13:55;31.92;42.17
66740;DHT22;53653;52.188;8.602;2022-08-03T10:16:21;32.11;41.98
66740;DHT22;53653;52.188;8.602;2022-08-03T10:18:47;32.77;40.84
66740;DHT22;53653;52.188;8.602;2022-08-03T10:21:15;32.96;39.87
66740;DHT22;53653;52.188;8.602;2022-08-03T10:23:41;32.50;40.19
66740;DHT22;53653;52.188;8.602;2022-08-03T10:26:10;31.91;41.30
66740;DHT22;53653;52.188;8.602;2022-08-03T10:28:39;32.12;41.06
66740;DHT22;53653;52.188;8.602;2022-08-03T10:31:07;32.56;40.56
66740;DHT22;53653;52.188;8.602;2022-08-03T10:33:41;32.98;39.75
66740;DHT22;53653;52.188;8.602;2022-08-03T10:36:06;33.10;38.41
66740;DHT22;53653;52.188;8.602;2022-08-03T10:38:43;32.70;38.58
66740;DHT22;53653;52.188;8.602;2022-08-03T10:41:11;32.88;38.49
66740;DHT22;53653;52.188;8.602;2022-08-03T10:43:47;32.61;39.07
66740;DHT22;53653;52.188;8.602;2022-08-03T10:46:16;32.94;39.08
66740;DHT22;53653;52.188;8.602;2022-08-03T10:48:44;33.03;38.36
66740;DHT22;53653;52.188;8.602;2022-08-03T10:51:09;32.67;38.88
66740;DHT22;53653;52.188;8.602;2022-08-03T10:53:39;32.90;38.54
66740;DHT22;53653;52.188;8.602;2022-08-03T10:59:17;33.61;37.16
66740;DHT22;53653;52.188;8.602;2022-08-03T11:01:52;33.77;37.19
66740;DHT22;53653;52.188;8.602;2022-08-03T11:04:22;33.62;37.61
66740;DHT22;53653;52.188;8.602;2022-08-03T11:09:44;33.61;37.77
66740;DHT22;53653;52.188;8.602;2022-08-03T11:12:24;33.56;36.89
66740;DHT22;53653;52.188;8.602;2022-08-03T11:14:52;33.70;35.72
66740;DHT22;53653;52.188;8.602;2022-08-03T11:17:18;33.99;35.77
66740;DHT22;53653;52.188;8.602;2022-08-03T11:19:51;33.80;35.54
66740;DHT22;53653;52.188;8.602;2022-08-03T11:22:18;33.95;36.32
66740;DHT22;53653;52.188;8.602;2022-08-03T11:27:23;34.06;37.55
66740;DHT22;53653;52.188;8.602;2022-08-03T11:35:26;34.25;35.64
66740;DHT22;53653;52.188;8.602;2022-08-03T11:45:59;34.27;34.85
66740;DHT22;53653;52.188;8.602;2022-08-03T11:48:27;34.14;36.78
66740;DHT22;53653;52.188;8.602;2022-08-03T11:50:53;34.24;36.10
66740;DHT22;53653;52.188;8.602;2022-08-03T11:53:19;34.28;36.18
66740;DHT22;53653;52.188;8.602;2022-08-03T11:55:47;34.51;36.10
66740;DHT22;53653;52.188;8.602;2022-08-03T11:58:20;34.78;35.66
66740;DHT22;53653;52.188;8.602;2022-08-03T12:00:47;34.84;35.95
66740;DHT22;53653;52.188;8.602;2022-08-03T12:03:15;34.37;36.09
66740;DHT22;53653;52.188;8.602;2022-08-03T12:05:53;33.52;37.72
66740;DHT22;53653;52.188;8.602;2022-08-03T12:10:54;33.97;36.62
66740;DHT22;53653;52.188;8.602;2022-08-03T12:13:21;34.14;36.43
66740;DHT22;53653;52.188;8.602;2022-08-03T12:15:57;34.06;36.51
66740;DHT22;53653;52.188;8.602;2022-08-03T12:18:23;34.00;36.15
66740;DHT22;53653;52.188;8.602;2022-08-03T12:20:51;34.06;35.77
66740;DHT22;53653;52.188;8.602;2022-08-03T12:23:17;33.95;36.76
66740;DHT22;53653;52.188;8.602;2022-08-03T12:25:44;34.09;35.90
66740;DHT22;53653;52.188;8.602;2022-08-03T12:30:38;34.30;35.83
66740;DHT22;53653;52.188;8.602;2022-08-03T12:33:20;34.25;36.02
66740;DHT22;53653;52.188;8.602;2022-08-03T12:35:47;34.27;35.17
66740;DHT22;53653;52.188;8.602;2022-08-03T12:38:18;34.50;35.34
66740;DHT22;53653;52.188;8.602;2022-08-03T12:40:44;34.43;35.84
66740;DHT22;53653;52.188;8.602;2022-08-03T12:43:13;33.90;36.30
66740;DHT22;53653;52.188;8.602;2022-08-03T12:45:39;34.12;36.86
66740;DHT22;53653;52.188;8.602;2022-08-03T12:48:08;34.16;35.91
66740;DHT22;53653;52.188;8.602;2022-08-03T12:50:38;34.31;36.04
66740;DHT22;53653;52.188;8.602;2022-08-03T12:53:05;34.17;36.29
66740;DHT22;53653;52.188;8.602;2022-08-03T12:55:32;34.27;35.27
66740;DHT22;53653;52.188;8.602;2022-08-03T12:57:59;34.36;35.49
66740;DHT22;53653;52.188;8.602;2022-08-03T13:00:24;34.27;36.25
66740;DHT22;53653;52.188;8.602;2022-08-03T13:03:18;34.19;36.67
66740;DHT22;53653;52.188;8.602;2022-08-03T13:05:43;34.27;35.54
66740;DHT22;53653;52.188;8.602;2022-08-03T13:08:20;34.31;35.86
66740;DHT22;53653;52.188;8.602;2022-08-03T13:10:46;34.23;35.99
66740;DHT22;53653;52.188;8.602;2022-08-03T13:13:12;34.23;35.56
66740;DHT22;53653;52.188;8.602;2022-08-03T13:15:38;34.27;35.78
66740;DHT22;53653;52.188;8.602;2022-08-03T13:18:03;34.36;35.66
66740;DHT22;53653;52.188;8.602;2022-08-03T13:20:28;34.25;36.31
66740;DHT22;53653;52.188;8.602;2022-08-03T13:22:54;34.00;36.51
66740;DHT22;53653;52.188;8.602;2022-08-03T13:25:21;33.95;36.71
66740;DHT22;53653;52.188;8.602;2022-08-03T13:27:46;33.65;36.52
66740;DHT22;53653;52.188;8.602;2022-08-03T13:30:13;33.76;36.21
66740;DHT22;53653;52.188;8.602;2022-08-03T13:32:39;33.39;37.23
66740;DHT22;53653;52.188;8.602;2022-08-03T13:35:05;33.93;36.68
66740;DHT22;53653;52.188;8.602;2022-08-03T13:37:31;34.19;36.56
66740;DHT22;53653;52.188;8.602;2022-08-03T13:39:57;34.28;36.44
66740;DHT22;53653;52.188;8.602;2022-08-03T13:42:23;34.19;35.66
66740;DHT22;53653;52.188;8.602;2022-08-03T13:44:48;34.17;35.88
66740;DHT22;53653;52.188;8.602;2022-08-03T13:47:14;34.23;36.17
66740;DHT22;53653;52.188;8.602;2022-08-03T13:49:39;33.96;36.48
66740;DHT22;53653;52.188;8.602;2022-08-03T13:52:05;33.97;36.24
66740;DHT22;53653;52.188;8.602;2022-08-03T13:54:30;33.17;37.06
66740;DHT22;53653;52.188;8.602;2022-08-03T13:56:58;33.24;36.86
66740;DHT22;53653;52.188;8.602;2022-08-03T13:59:24;33.17;36.95
66740;DHT22;53653;52.188;8.602;2022-08-03T14:01:50;33.62;36.26
66740;DHT22;53653;52.188;8.602;2022-08-03T14:04:17;33.69;35.71
66740;DHT22;53653;52.188;8.602;2022-08-03T14:06:42;33.70;35.60
66740;DHT22;53653;52.188;8.602;2022-08-03T14:09:14;33.63;35.02
66740;DHT22;53653;52.188;8.602;2022-08-03T14:11:41;33.88;34.88
66740;DHT22;53653;52.188;8.602;2022-08-03T14:14:06;33.79;35.32
66740;DHT22;53653;52.188;8.602;2022-08-03T14:16:32;33.80;35.74
66740;DHT22;53653;52.188;8.602;2022-08-03T14:18:57;33.27;36.52
66740;DHT22;53653;52.188;8.602;2022-08-03T14:21:22;33.59;36.48
66740;DHT22;53653;52.188;8.602;2022-08-03T14:23:48;33.39;36.75
66740;DHT22;53653;52.188;8.602;2022-08-03T14:26:13;33.75;36.11
66740;DHT22;53653;52.188;8.602;2022-08-03T14:28:39;33.55;35.82
66740;DHT22;53653;52.188;8.602;2022-08-03T14:31:05;33.62;36.51
66740;DHT22;53653;52.188;8.602;2022-08-03T14:33:30;33.90;36.11
66740;DHT22;53653;52.188;8.602;2022-08-03T14:35:56;34.03;36.08
66740;DHT22;53653;52.188;8.602;2022-08-03T14:38:22;34.12;35.68
66740;DHT22;53653;52.188;8.602;2022-08-03T14:40:47;34.13;36.35
66740;DHT22;53653;52.188;8.602;2022-08-03T14:43:14;34.23;35.59
66740;DHT22;53653;52.188;8.602;2022-08-03T14:45:39;34.25;35.94
66740;DHT22;53653;52.188;8.602;2022-08-03T14:48:05;34.09;35.48
66740;DHT22;53653;52.188;8.602;2022-08-03T14:50:31;33.95;36.29
66740;DHT22;53653;52.188;8.602;2022-08-03T14:52:57;33.85;36.24
66740;DHT22;53653;52.188;8.602;2022-08-03T14:55:22;33.88;35.89
66740;DHT22;53653;52.188;8.602;2022-08-03T14:57:48;33.85;36.76
66740;DHT22;53653;52.188;8.602;2022-08-03T15:00:14;33.97;36.63
66740;DHT22;53653;52.188;8.602;2022-08-03T15:02:39;34.02;34.95
66740;DHT22;53653;52.188;8.602;2022-08-03T15:05:05;33.92;34.86
66740;DHT22;53653;52.188;8.602;2022-08-03T15:07:31;34.02;35.21
66740;DHT22;53653;52.188;8.602;2022-08-03T15:09:56;34.03;35.05
66740;DHT22;53653;52.188;8.602;2022-08-03T15:12:22;34.04;35.71
66740;DHT22;53653;52.188;8.602;2022-08-03T15:14:47;33.92;36.16
66740;DHT22;53653;52.188;8.602;2022-08-03T15:17:13;33.39;36.17
66740;DHT22;53653;52.188;8.602;2022-08-03T15:19:38;33.56;36.41
66740;DHT22;53653;52.188;8.602;2022-08-03T15:22:04;33.62;36.22
66740;DHT22;53653;52.188;8.602;2022-08-03T15:24:30;33.61;36.00
66740;DHT22;53653;52.188;8.602;2022-08-03T15:26:55;33.44;36.74
66740;DHT22;53653;52.188;8.602;2022-08-03T15:29:21;33.58;36.39
66740;DHT22;53653;52.188;8.602;2022-08-03T15:31:46;33.80;36.51
66740;DHT22;53653;52.188;8.602;2022-08-03T15:34:12;34.02;36.03
66740;DHT22;53653;52.188;8.602;2022-08-03T15:36:37;34.04;35.52
66740;DHT22;53653;52.188;8.602;2022-08-03T15:39:04;34.14;35.37
66740;DHT22;53653;52.188;8.602;2022-08-03T15:41:29;34.14;35.83
66740;DHT22;53653;52.188;8.602;2022-08-03T15:43:55;33.99;34.98
66740;DHT22;53653;52.188;8.602;2022-08-03T15:46:20;33.90;34.88
66740;DHT22;53653;52.188;8.602;2022-08-03T15:48:46;33.77;35.49
66740;DHT22;53653;52.188;8.602;2022-08-03T15:51:11;33.83;35.98
66740;DHT22;53653;52.188;8.602;2022-08-03T15:53:37;33.90;35.61
66740;DHT22;53653;52.188;8.602;2022-08-03T15:56:03;33.79;35.83
66740;DHT22;53653;52.188;8.602;2022-08-03T15:58:29;33.76;36.03
66740;DHT22;53653;52.188;8.602;2022-08-03T16:00:58;33.83;35.48
66740;DHT22;53653;52.188;8.602;2022-08-03T16:03:24;33.61;35.33
66740;DHT22;53653;52.188;8.602;2022-08-03T16:05:52;33.61;35.74
66740;DHT22;53653;52.188;8.602;2022-08-03T16:08:17;33.95;35.28
66740;DHT22;53653;52.188;8.602;2022-08-03T16:10:43;34.40;34.61
66740;DHT22;53653;52.188;8.602;2022-08-03T16:13:10;34.02;35.72
66740;DHT22;53653;52.188;8.602;2022-08-03T16:15:36;33.76;35.49
66740;DHT22;53653;52.188;8.602;2022-08-03T16:18:03;33.63;35.70
66740;DHT22;53653;52.188;8.602;2022-08-03T16:20:28;33.51;35.76